Time;durP1;ratioP1;P1;durP2;ratioP2;P2;SDS_P1;SDS_P2;PMS_P1;PMS_P2;Temp;Humidity;BMP_temperature;BMP_pressure;BME280_temperature;BME280_humidity;BME280_pressure;Samples;Min_cycle;Max_cycle;Signal;HPM_P1;HPM_P2
2021/10/12 00:01:26;;;;;;;;;;;13.30;49.40;;;;;;4358822;32;20030;-37
2021/10/12 00:03:52;;;;;;;;;;;13.30;49.40;;;;;;4358813;32;20037;-36
2021/10/12 00:06:18;;;;;;;;;;;13.30;49.50;;;;;;4358735;32;20446;-37
2021/10/12 00:08:45;;;;;;;;;;;13.30;49.60;;;;;;4358597;32;19962;-38
2021/10/12 00:11:11;;;;;;;;;;;13.30;49.60;;;;;;4358483;32;19973;-38
2021/10/12 00:13:37;;;;;;;;;;;13.30;49.60;;;;;;4358421;32;19966;-38
2021/10/12 00:16:03;;;;;;;;;;;13.30;49.30;;;;;;4358677;32;19969;-38
2021/10/12 00:18:30;;;;;;;;;;;13.30;49.20;;;;;;4358610;32;20452;-37
2021/10/12 00:20:56;;;;;;;;;;;13.20;49.10;;;;;;4358632;32;19971;-38
2021/10/12 00:23:22;;;;;;;;;;;13.20;49.10;;;;;;4344600;32;19961;-38
2021/10/12 00:25:48;;;;;;;;;;;13.20;49.10;;;;;;4358611;32;19966;-37
2021/10/12 00:28:14;;;;;;;;;;;13.20;49.10;;;;;;4358462;32;19965;-37
2021/10/12 00:30:41;;;;;;;;;;;13.30;49.20;;;;;;4358566;32;20069;-37
2021/10/12 00:33:07;;;;;;;;;;;13.30;49.50;;;;;;4358591;32;19985;-37
2021/10/12 00:35:33;;;;;;;;;;;13.30;49.50;;;;;;4358636;32;19962;-37
2021/10/12 00:37:59;;;;;;;;;;;13.30;49.60;;;;;;4358535;32;19977;-37
2021/10/12 00:40:25;;;;;;;;;;;13.30;49.60;;;;;;4358659;32;19971;-36
2021/10/12 00:42:55;;;;;;;;;;;13.30;49.60;;;;;;4344357;32;20428;-38
2021/10/12 00:45:21;;;;;;;;;;;13.30;49.40;;;;;;4345994;32;19968;-37
2021/10/12 00:48:01;;;;;;;;;;;13.30;49.20;;;;;;4373514;32;20379;-38
2021/10/12 00:50:28;;;;;;;;;;;13.20;49.00;;;;;;4373337;32;19969;-38
2021/10/12 00:52:54;;;;;;;;;;;13.10;49.00;;;;;;4373570;32;20001;-37
2021/10/12 00:55:21;;;;;;;;;;;13.10;48.90;;;;;;4373313;32;19970;-37
2021/10/12 00:57:47;;;;;;;;;;;13.10;48.90;;;;;;4373588;32;19969;-37
2021/10/12 01:00:14;;;;;;;;;;;13.00;48.80;;;;;;4373422;32;20042;-37
2021/10/12 01:02:40;;;;;;;;;;;13.00;48.80;;;;;;4373171;32;20054;-37
2021/10/12 01:05:07;;;;;;;;;;;13.00;48.80;;;;;;4373091;32;19957;-37
2021/10/12 01:07:34;;;;;;;;;;;12.90;48.70;;;;;;4358922;32;20002;-37
2021/10/12 01:10:01;;;;;;;;;;;12.80;48.80;;;;;;4373532;32;20050;-36
2021/10/12 01:12:27;;;;;;;;;;;12.80;48.90;;;;;;4373292;32;19976;-37
2021/10/12 01:14:53;;;;;;;;;;;12.80;49.10;;;;;;4373410;32;20037;-38
2021/10/12 01:17:19;;;;;;;;;;;12.70;49.20;;;;;;4373462;32;19989;-38
2021/10/12 01:19:46;;;;;;;;;;;12.80;49.30;;;;;;4373224;32;19970;-37
2021/10/12 01:22:13;;;;;;;;;;;12.80;49.30;;;;;;4373420;32;19966;-38
2021/10/12 01:24:39;;;;;;;;;;;12.80;49.30;;;;;;4359807;32;20053;-38
2021/10/12 01:27:06;;;;;;;;;;;12.80;49.30;;;;;;4374694;32;19963;-38
2021/10/12 01:29:32;;;;;;;;;;;12.80;49.30;;;;;;4375745;32;19966;-37
2021/10/12 01:31:58;;;;;;;;;;;12.80;49.30;;;;;;4375613;32;19981;-36
2021/10/12 01:34:25;;;;;;;;;;;12.70;49.30;;;;;;4375827;32;19993;-37
2021/10/12 01:36:51;;;;;;;;;;;12.70;49.30;;;;;;4375824;32;20399;-38
2021/10/12 01:39:17;;;;;;;;;;;12.80;49.30;;;;;;4375590;32;19997;-38
2021/10/12 01:41:44;;;;;;;;;;;12.70;49.20;;;;;;4375557;32;19962;-38
2021/10/12 01:44:16;;;;;;;;;;;12.60;49.00;;;;;;4375736;32;20073;-38
2021/10/12 01:46:43;;;;;;;;;;;12.60;49.00;;;;;;4365434;32;20112;-38
2021/10/12 01:49:09;;;;;;;;;;;12.50;49.10;;;;;;4346661;32;19970;-37
2021/10/12 01:51:35;;;;;;;;;;;12.40;49.10;;;;;;4360506;32;19985;-38
2021/10/12 01:54:02;;;;;;;;;;;12.30;49.00;;;;;;4360556;32;19974;-37
2021/10/12 01:56:29;;;;;;;;;;;12.30;49.00;;;;;;4360574;32;20034;-38
2021/10/12 01:58:55;;;;;;;;;;;12.30;49.20;;;;;;4360380;32;20070;-38
2021/10/12 02:01:22;;;;;;;;;;;12.20;49.00;;;;;;4360690;32;19968;-37
2021/10/12 02:03:48;;;;;;;;;;;12.20;49.10;;;;;;4360710;32;20041;-38
2021/10/12 02:06:14;;;;;;;;;;;12.20;49.30;;;;;;4360478;32;19951;-37
2021/10/12 02:08:41;;;;;;;;;;;12.10;49.20;;;;;;4360171;32;19962;-38
2021/10/12 02:11:07;;;;;;;;;;;12.10;49.30;;;;;;4346139;32;19989;-38
2021/10/12 02:13:33;;;;;;;;;;;12.10;49.50;;;;;;4360420;32;19973;-37
2021/10/12 02:16:00;;;;;;;;;;;12.00;49.40;;;;;;4360373;32;20039;-37
2021/10/12 02:18:26;;;;;;;;;;;12.00;49.40;;;;;;4360573;32;19986;-38
2021/10/12 02:20:52;;;;;;;;;;;12.00;49.40;;;;;;4359893;32;19971;-37
2021/10/12 02:23:18;;;;;;;;;;;12.00;49.30;;;;;;4360224;32;19971;-38
2021/10/12 02:25:44;;;;;;;;;;;12.00;49.60;;;;;;4346469;32;19951;-37
2021/10/12 02:28:11;;;;;;;;;;;12.00;49.90;;;;;;4359920;32;20512;-38
2021/10/12 02:30:37;;;;;;;;;;;12.00;50.30;;;;;;4346352;32;20067;-38
2021/10/12 02:33:04;;;;;;;;;;;12.00;50.40;;;;;;4359658;32;20000;-37
2021/10/12 02:35:30;;;;;;;;;;;12.10;50.40;;;;;;4346227;32;20084;-37
2021/10/12 02:37:56;;;;;;;;;;;12.10;50.40;;;;;;4360002;32;20042;-37
2021/10/12 02:40:22;;;;;;;;;;;12.10;50.50;;;;;;4359764;32;20494;-37
2021/10/12 02:42:49;;;;;;;;;;;12.20;50.60;;;;;;4359548;32;19998;-38
2021/10/12 02:45:15;;;;;;;;;;;12.20;50.60;;;;;;4360647;32;19974;-37
2021/10/12 02:47:41;;;;;;;;;;;12.20;50.40;;;;;;4360624;32;20486;-37
2021/10/12 02:50:08;;;;;;;;;;;12.20;50.20;;;;;;4374355;32;20471;-37
2021/10/12 02:52:34;;;;;;;;;;;12.20;50.00;;;;;;4374763;32;20017;-38
2021/10/12 02:55:00;;;;;;;;;;;12.20;50.00;;;;;;4374473;32;20463;-38
2021/10/12 02:57:27;;;;;;;;;;;12.20;49.80;;;;;;4360458;32;20423;-38
2021/10/12 02:59:53;;;;;;;;;;;12.10;49.70;;;;;;4374203;32;20366;-38
2021/10/12 03:02:19;;;;;;;;;;;12.10;49.90;;;;;;4374386;32;20008;-39
2021/10/12 03:04:45;;;;;;;;;;;12.00;49.90;;;;;;4374231;32;20512;-38
2021/10/12 03:07:11;;;;;;;;;;;12.00;50.00;;;;;;4360084;32;19974;-42
2021/10/12 03:09:37;;;;;;;;;;;12.00;50.00;;;;;;4374533;32;20008;-39
2021/10/12 03:12:05;;;;;;;;;;;12.00;50.10;;;;;;4374331;32;19992;-39
2021/10/12 03:14:32;;;;;;;;;;;12.00;50.00;;;;;;4374411;32;19985;-37
2021/10/12 03:16:58;;;;;;;;;;;12.00;50.20;;;;;;4374279;32;19992;-37
2021/10/12 03:19:25;;;;;;;;;;;11.90;50.10;;;;;;4374017;32;19954;-38
2021/10/12 03:21:54;;;;;;;;;;;12.00;50.10;;;;;;4374128;32;20027;-37
2021/10/12 03:24:20;;;;;;;;;;;11.90;50.10;;;;;;4373768;32;19986;-38
2021/10/12 03:26:47;;;;;;;;;;;11.90;50.10;;;;;;4373993;32;19969;-38
2021/10/12 03:29:13;;;;;;;;;;;12.00;50.20;;;;;;4359632;32;20359;-38
2021/10/12 03:31:39;;;;;;;;;;;11.90;50.20;;;;;;4374044;32;19968;-38
2021/10/12 03:34:05;;;;;;;;;;;11.90;50.90;;;;;;4360301;32;20016;-38
2021/10/12 03:36:31;;;;;;;;;;;11.90;50.30;;;;;;4373682;32;19969;-38
2021/10/12 03:38:58;;;;;;;;;;;11.90;50.30;;;;;;4373923;32;19991;-38
2021/10/12 03:41:24;;;;;;;;;;;11.90;50.40;;;;;;4373818;32;19962;-38
2021/10/12 03:43:50;;;;;;;;;;;12.00;50.50;;;;;;4373819;32;19981;-38
2021/10/12 03:46:16;;;;;;;;;;;12.00;50.50;;;;;;4366333;32;20030;-38
2021/10/12 03:48:42;;;;;;;;;;;12.00;50.50;;;;;;4358492;32;19971;-38
2021/10/12 03:51:09;;;;;;;;;;;12.10;50.60;;;;;;4344563;32;20031;-38
2021/10/12 03:53:35;;;;;;;;;;;12.10;50.50;;;;;;4344716;32;20043;-37
2021/10/12 03:56:02;;;;;;;;;;;12.20;50.50;;;;;;4359452;32;20051;-38
2021/10/12 03:58:28;;;;;;;;;;;12.30;50.60;;;;;;4359042;32;19967;-37
2021/10/12 04:00:54;;;;;;;;;;;12.30;50.50;;;;;;4358739;32;20560;-37
2021/10/12 04:03:21;;;;;;;;;;;12.30;50.50;;;;;;4359138;32;19966;-38
2021/10/12 04:05:47;;;;;;;;;;;12.40;50.60;;;;;;4358374;32;19977;-38
2021/10/12 04:08:14;;;;;;;;;;;12.50;50.60;;;;;;4358399;32;19962;-38
2021/10/12 04:10:40;;;;;;;;;;;12.60;50.60;;;;;;4358536;32;19974;-39
2021/10/12 04:13:06;;;;;;;;;;;12.60;50.40;;;;;;4358846;32;19970;-39
2021/10/12 04:15:33;;;;;;;;;;;12.70;50.40;;;;;;4344807;32;20481;-38
2021/10/12 04:17:59;;;;;;;;;;;12.80;50.30;;;;;;4345152;32;20034;-37
2021/10/12 04:20:27;;;;;;;;;;;12.90;50.30;;;;;;4358883;32;19969;-38
2021/10/12 04:22:54;;;;;;;;;;;13.00;50.30;;;;;;4358736;32;20071;-37
2021/10/12 04:25:20;;;;;;;;;;;13.10;50.30;;;;;;4358650;32;19973;-38
2021/10/12 04:27:47;;;;;;;;;;;13.20;50.30;;;;;;4358595;32;19982;-38
2021/10/12 04:30:13;;;;;;;;;;;13.40;50.30;;;;;;4358288;32;20552;-38
2021/10/12 04:32:39;;;;;;;;;;;13.50;50.30;;;;;;4358738;32;19974;-38
2021/10/12 04:35:06;;;;;;;;;;;13.70;50.30;;;;;;4358338;32;20398;-38
2021/10/12 04:37:32;;;;;;;;;;;13.90;50.30;;;;;;4358876;32;19975;-37
2021/10/12 04:39:58;;;;;;;;;;;14.10;50.20;;;;;;4359017;32;20061;-38
2021/10/12 04:42:24;;;;;;;;;;;14.40;50.20;;;;;;4358834;32;19987;-39
2021/10/12 04:44:53;;;;;;;;;;;14.60;50.30;;;;;;4358463;32;19979;-38
2021/10/12 04:47:20;;;;;;;;;;;14.90;50.40;;;;;;4371904;32;19981;-38
2021/10/12 04:49:47;;;;;;;;;;;15.10;50.50;;;;;;4373328;32;20066;-38
2021/10/12 04:52:14;;;;;;;;;;;15.40;50.20;;;;;;4372936;32;19965;-38
2021/10/12 04:54:40;;;;;;;;;;;15.70;49.90;;;;;;4359426;32;20054;-39
2021/10/12 04:57:06;;;;;;;;;;;16.00;49.80;;;;;;4373614;32;19989;-38
2021/10/12 04:59:32;;;;;;;;;;;16.30;49.40;;;;;;4373760;32;19962;-38
2021/10/12 05:01:58;;;;;;;;;;;16.60;49.10;;;;;;4374843;32;19977;-37
2021/10/12 05:04:25;;;;;;;;;;;16.80;48.70;;;;;;4375925;32;19963;-38
2021/10/12 05:06:51;;;;;;;;;;;17.10;48.50;;;;;;4375873;32;20063;-38
2021/10/12 05:09:17;;;;;;;;;;;17.30;48.10;;;;;;4375841;32;19962;-37
2021/10/12 05:11:43;;;;;;;;;;;17.60;47.70;;;;;;4375777;32;19973;-37
2021/10/12 05:14:09;;;;;;;;;;;17.90;47.30;;;;;;4375685;32;19973;-37
2021/10/12 05:16:36;;;;;;;;;;;18.10;47.00;;;;;;4376113;32;19977;-37
2021/10/12 05:19:02;;;;;;;;;;;18.40;46.60;;;;;;4376000;32;20415;-38
2021/10/12 05:21:29;;;;;;;;;;;18.60;46.10;;;;;;4376048;32;20008;-37
2021/10/12 05:23:55;;;;;;;;;;;18.80;45.70;;;;;;4375416;32;20009;-37
2021/10/12 05:26:22;;;;;;;;;;;19.00;45.20;;;;;;4375984;32;20410;-38
2021/10/12 05:28:49;;;;;;;;;;;19.20;44.80;;;;;;4375486;32;19995;-37
2021/10/12 05:31:15;;;;;;;;;;;19.40;44.50;;;;;;4361727;32;19978;-37
2021/10/12 05:33:43;;;;;;;;;;;19.70;44.20;;;;;;4361204;32;20359;-38
2021/10/12 05:36:09;;;;;;;;;;;19.80;43.80;;;;;;4375775;32;19954;-38
2021/10/12 05:38:36;;;;;;;;;;;20.00;43.50;;;;;;4375967;32;19963;-37
2021/10/12 05:41:02;;;;;;;;;;;20.20;43.10;;;;;;4375082;32;20431;-37
2021/10/12 05:43:28;;;;;;;;;;;20.30;42.80;;;;;;4375531;32;20437;-38
2021/10/12 05:45:54;;;;;;;;;;;20.40;42.70;;;;;;4356288;32;20253;-37
2021/10/12 05:48:20;;;;;;;;;;;20.50;42.50;;;;;;4360438;32;19978;-37
2021/10/12 05:50:47;;;;;;;;;;;20.70;42.40;;;;;;4360144;32;19958;-36
2021/10/12 05:53:25;;;;;;;;;;;20.90;42.20;;;;;;4360513;32;20066;-37
2021/10/12 05:56:06;;;;;;;;;;;21.20;42.00;;;;;;4360766;32;19997;-39
2021/10/12 05:58:48;;;;;;;;;;;21.40;41.70;;;;;;4360685;32;20072;-37
2021/10/12 06:01:14;;;;;;;;;;;21.70;41.20;;;;;;4360300;32;20047;-38
2021/10/12 06:03:41;;;;;;;;;;;22.00;40.60;;;;;;4360208;32;20340;-37
2021/10/12 06:06:07;;;;;;;;;;;22.30;40.40;;;;;;4346304;32;20109;-35
2021/10/12 06:08:34;;;;;;;;;;;22.60;39.90;;;;;;4360032;32;20005;-37
2021/10/12 06:11:01;;;;;;;;;;;22.90;38.90;;;;;;4346525;32;20084;-37
2021/10/12 06:13:28;;;;;;;;;;;23.20;38.60;;;;;;4359429;32;20442;-36
2021/10/12 06:15:54;;;;;;;;;;;23.40;37.80;;;;;;4360339;32;19969;-36
2021/10/12 06:18:20;;;;;;;;;;;23.70;37.60;;;;;;4346258;32;19974;-37
2021/10/12 06:20:47;;;;;;;;;;;23.90;37.20;;;;;;4359673;32;20047;-37
2021/10/12 06:23:14;;;;;;;;;;;24.10;36.50;;;;;;4346444;32;19966;-37
2021/10/12 06:25:40;;;;;;;;;;;24.30;35.10;;;;;;4359833;32;20038;-36
2021/10/12 06:28:06;;;;;;;;;;;24.50;33.70;;;;;;4359939;32;20360;-37
2021/10/12 06:30:33;;;;;;;;;;;24.60;33.80;;;;;;4360267;32;20000;-37
2021/10/12 06:32:59;;;;;;;;;;;24.80;33.50;;;;;;4359990;32;19955;-36
2021/10/12 06:35:29;;;;;;;;;;;24.90;33.40;;;;;;4359967;32;19961;-38
2021/10/12 06:37:56;;;;;;;;;;;25.00;33.70;;;;;;4360197;32;20048;-38
2021/10/12 06:40:23;;;;;;;;;;;25.10;33.40;;;;;;4360002;32;20384;-37
2021/10/12 06:42:49;;;;;;;;;;;25.20;33.40;;;;;;4359643;32;20045;-36
2021/10/12 06:45:16;;;;;;;;;;;25.40;32.10;;;;;;4360336;32;20456;-38
2021/10/12 06:47:43;;;;;;;;;;;25.50;32.10;;;;;;4327048;33;20054;-37
2021/10/12 06:50:10;;;;;;;;;;;25.60;31.60;;;;;;4327874;33;19983;-37
2021/10/12 06:52:36;;;;;;;;;;;25.80;32.00;;;;;;4327469;33;19977;-37
2021/10/12 06:55:03;;;;;;;;;;;25.90;31.50;;;;;;4327519;33;20081;-37
2021/10/12 06:57:29;;;;;;;;;;;26.10;31.30;;;;;;4327513;33;20375;-37
2021/10/12 06:59:55;;;;;;;;;;;26.30;30.90;;;;;;4327540;33;19998;-37
2021/10/12 07:02:21;;;;;;;;;;;26.50;30.80;;;;;;4327141;33;20045;-38
2021/10/12 07:04:47;;;;;;;;;;;26.70;29.90;;;;;;4327332;33;20081;-37
2021/10/12 07:07:13;;;;;;;;;;;26.90;29.40;;;;;;4327357;33;19980;-36
2021/10/12 07:09:40;;;;;;;;;;;27.10;29.40;;;;;;4327606;33;20129;-38
2021/10/12 07:12:06;;;;;;;;;;;27.30;29.30;;;;;;4327097;33;19983;-38
2021/10/12 07:14:32;;;;;;;;;;;27.30;29.10;;;;;;4327520;33;19967;-37
2021/10/12 07:16:58;;;;;;;;;;;27.30;29.10;;;;;;4327093;33;19975;-37
2021/10/12 07:19:26;;;;;;;;;;;27.40;29.00;;;;;;4363977;32;19988;-38
2021/10/12 07:21:54;;;;;;;;;;;27.50;28.70;;;;;;4374464;32;19965;-37
2021/10/12 07:24:21;;;;;;;;;;;27.60;28.60;;;;;;4373746;32;19980;-37
2021/10/12 07:26:47;;;;;;;;;;;27.70;28.20;;;;;;4374322;32;20033;-37
2021/10/12 07:29:14;;;;;;;;;;;27.90;27.70;;;;;;4374361;32;19993;-38
2021/10/12 07:31:40;;;;;;;;;;;28.10;27.60;;;;;;4359989;32;20475;-38
2021/10/12 07:34:06;;;;;;;;;;;28.40;27.20;;;;;;4374052;32;19977;-37
2021/10/12 07:36:33;;;;;;;;;;;28.70;26.90;;;;;;4374196;32;19962;-38
2021/10/12 07:38:59;;;;;;;;;;;28.90;26.00;;;;;;4374226;32;19973;-37
2021/10/12 07:41:25;;;;;;;;;;;29.30;25.70;;;;;;4373846;32;19958;-38
2021/10/12 07:43:51;;;;;;;;;;;29.50;25.30;;;;;;4373907;32;20066;-38
2021/10/12 07:46:17;;;;;;;;;;;29.60;25.40;;;;;;4366481;32;19997;-38
2021/10/12 07:48:44;;;;;;;;;;;29.60;25.60;;;;;;4359106;32;20049;-37
2021/10/12 07:51:10;;;;;;;;;;;29.50;25.20;;;;;;4358542;32;19982;-37
2021/10/12 07:53:38;;;;;;;;;;;29.50;24.90;;;;;;4358593;32;20002;-37
2021/10/12 07:56:08;;;;;;;;;;;29.50;25.10;;;;;;4358445;32;20001;-37
2021/10/12 07:58:34;;;;;;;;;;;29.50;25.10;;;;;;4358325;32;20370;-37
2021/10/12 08:01:02;;;;;;;;;;;29.40;25.20;;;;;;4358580;32;19963;-36
2021/10/12 08:03:28;;;;;;;;;;;29.30;25.50;;;;;;4358758;32;20043;-37
2021/10/12 08:05:55;;;;;;;;;;;29.10;25.20;;;;;;4358360;32;19990;-37
2021/10/12 08:08:21;;;;;;;;;;;29.10;25.40;;;;;;4358812;32;19963;-37
2021/10/12 08:10:48;;;;;;;;;;;29.00;25.70;;;;;;4344712;32;20057;-37
2021/10/12 08:13:17;;;;;;;;;;;28.90;25.90;;;;;;4345295;32;19966;-36
2021/10/12 08:15:47;;;;;;;;;;;28.80;26.10;;;;;;4358403;32;20067;-36
2021/10/12 08:18:13;;;;;;;;;;;28.60;26.20;;;;;;4345263;32;20038;-36
2021/10/12 08:20:40;;;;;;;;;;;28.50;26.10;;;;;;4358385;32;19974;-38
2021/10/12 08:23:06;;;;;;;;;;;28.40;25.90;;;;;;4358759;32;20017;-37
2021/10/12 08:25:32;;;;;;;;;;;28.30;26.00;;;;;;4358592;32;20103;-37
2021/10/12 08:27:58;;;;;;;;;;;28.30;26.10;;;;;;4358515;32;20414;-38
2021/10/12 08:30:25;;;;;;;;;;;28.20;26.00;;;;;;4358094;32;20419;-37
2021/10/12 08:32:51;;;;;;;;;;;28.10;26.20;;;;;;4358669;32;19998;-37
2021/10/12 08:35:17;;;;;;;;;;;28.00;26.30;;;;;;4359177;32;19978;-38
2021/10/12 08:37:43;;;;;;;;;;;27.80;26.30;;;;;;4361451;32;20463;-36
2021/10/12 08:40:15;;;;;;;;;;;27.70;26.30;;;;;;4361005;32;20406;-38
2021/10/12 08:42:46;;;;;;;;;;;27.60;26.40;;;;;;4347929;32;20001;-37
2021/10/12 08:45:13;;;;;;;;;;;27.40;26.50;;;;;;4361601;32;20047;-38
2021/10/12 08:47:39;;;;;;;;;;;27.40;26.50;;;;;;4376087;32;20436;-37
2021/10/12 08:50:07;;;;;;;;;;;27.40;26.50;;;;;;4376220;32;20073;-37
2021/10/12 08:52:34;;;;;;;;;;;27.30;26.40;;;;;;4376355;32;19981;-36
2021/10/12 08:55:00;;;;;;;;;;;27.30;26.50;;;;;;4375985;32;19969;-37
2021/10/12 08:57:30;;;;;;;;;;;27.20;26.50;;;;;;4376232;32;19993;-36
2021/10/12 08:59:57;;;;;;;;;;;27.20;26.40;;;;;;4376312;32;20035;-36
2021/10/12 09:02:25;;;;;;;;;;;27.10;26.40;;;;;;4376367;32;19977;-37
2021/10/12 09:04:51;;;;;;;;;;;27.00;26.50;;;;;;4376169;32;20486;-37
2021/10/12 09:07:20;;;;;;;;;;;26.90;26.70;;;;;;4328652;33;20047;-37
2021/10/12 09:09:47;;;;;;;;;;;26.90;26.80;;;;;;4329199;33;19978;-37
2021/10/12 09:12:13;;;;;;;;;;;26.80;26.60;;;;;;4316155;33;19978;-36
2021/10/12 09:14:58;;;;;;;;;;;26.60;26.40;;;;;;4316487;33;20443;-37
2021/10/12 09:17:33;;;;;;;;;;;26.40;26.40;;;;;;4328450;33;20503;-37
2021/10/12 09:19:59;;;;;;;;;;;26.30;26.30;;;;;;4328735;33;20068;-37
2021/10/12 09:22:26;;;;;;;;;;;26.20;26.00;;;;;;4298954;33;19983;-37
2021/10/12 09:24:52;;;;;;;;;;;26.20;25.90;;;;;;4287400;33;20464;-36
2021/10/12 09:27:25;;;;;;;;;;;26.10;25.80;;;;;;4299209;33;19975;-38
2021/10/12 09:29:51;;;;;;;;;;;26.00;25.70;;;;;;4299194;33;20447;-38
2021/10/12 09:32:22;;;;;;;;;;;25.90;25.60;;;;;;4275236;33;19979;-37
2021/10/12 09:34:48;;;;;;;;;;;25.80;25.60;;;;;;4299426;33;19968;-37
2021/10/12 09:37:16;;;;;;;;;;;25.70;25.70;;;;;;4287214;33;20455;-38
2021/10/12 09:39:45;;;;;;;;;;;25.80;25.60;;;;;;4299308;33;19983;-37
2021/10/12 09:42:15;;;;;;;;;;;25.90;25.40;;;;;;4286911;33;20444;-38
2021/10/12 09:44:54;;;;;;;;;;;26.10;25.30;;;;;;4312898;33;20157;-37
2021/10/12 09:47:22;;;;;;;;;;;26.10;25.20;;;;;;4327931;33;20524;-38
2021/10/12 09:49:48;;;;;;;;;;;26.10;25.10;;;;;;4328368;33;20023;-38
2021/10/12 09:52:15;;;;;;;;;;;26.20;25.10;;;;;;4328298;33;20419;-37
2021/10/12 09:54:57;;;;;;;;;;;26.30;25.10;;;;;;4328042;33;19970;-37
2021/10/12 09:57:27;;;;;;;;;;;26.30;25.00;;;;;;4328285;33;20074;-39
2021/10/12 09:59:54;;;;;;;;;;;26.30;25.00;;;;;;4344601;32;19959;-38
2021/10/12 10:02:21;;;;;;;;;;;26.30;25.00;;;;;;4360116;32;19975;-37
2021/10/12 10:04:48;;;;;;;;;;;26.40;25.10;;;;;;4359678;32;20441;-37
2021/10/12 10:07:37;;;;;;;;;;;26.50;25.20;;;;;;4360368;32;20000;-38
2021/10/12 10:10:04;;;;;;;;;;;26.50;25.00;;;;;;4346249;32;20050;-38
2021/10/12 10:12:31;;;;;;;;;;;26.50;25.00;;;;;;4360381;32;20042;-38
2021/10/12 10:14:57;;;;;;;;;;;26.50;25.20;;;;;;4360081;32;20486;-37
2021/10/12 10:17:23;;;;;;;;;;;26.50;25.20;;;;;;4360335;32;19973;-38
2021/10/12 10:19:50;;;;;;;;;;;26.50;25.20;;;;;;4343464;32;20388;-38
2021/10/12 10:22:35;;;;;;;;;;;26.50;25.00;;;;;;4343650;33;19978;-36
2021/10/12 10:25:25;;;;;;;;;;;26.30;25.00;;;;;;4345197;32;20412;-37
2021/10/12 10:27:51;;;;;;;;;;;26.20;25.30;;;;;;4343803;33;20429;-36
2021/10/12 10:30:26;;;;;;;;;;;26.10;25.50;;;;;;4344751;32;20375;-38
2021/10/12 10:33:03;;;;;;;;;;;26.00;25.80;;;;;;4343525;33;20482;-37
2021/10/12 10:35:47;;;;;;;;;;;26.10;26.00;;;;;;4343548;33;20063;-37
2021/10/12 10:38:26;;;;;;;;;;;26.20;26.20;;;;;;4344644;32;19963;-37
2021/10/12 10:41:05;;;;;;;;;;;26.30;26.30;;;;;;4345202;32;19982;-37
2021/10/12 10:44:01;;;;;;;;;;;26.30;26.20;;;;;;4355507;32;20005;-36
2021/10/12 10:46:34;;;;;;;;;;;26.20;26.70;;;;;;4343825;32;19959;-37
2021/10/12 10:49:18;;;;;;;;;;;26.10;26.20;;;;;;4344769;32;19963;-38
2021/10/12 10:52:01;;;;;;;;;;;26.00;26.20;;;;;;4344856;32;19985;-37
2021/10/12 10:54:43;;;;;;;;;;;25.80;26.10;;;;;;4344619;32;19974;-38
2021/10/12 10:57:19;;;;;;;;;;;25.60;26.20;;;;;;4344941;32;19974;-38
2021/10/12 11:00:06;;;;;;;;;;;25.60;26.50;;;;;;4343578;32;20426;-38
2021/10/12 11:02:33;;;;;;;;;;;25.50;26.50;;;;;;4344078;33;20055;-38
2021/10/12 11:04:59;;;;;;;;;;;25.40;26.70;;;;;;4344648;32;20048;-37
2021/10/12 11:07:27;;;;;;;;;;;25.30;26.80;;;;;;4342977;33;20408;-38
2021/10/12 11:09:53;;;;;;;;;;;25.20;26.90;;;;;;4344585;32;19973;-38
2021/10/12 11:12:23;;;;;;;;;;;25.30;27.10;;;;;;4344466;33;19982;-38
2021/10/12 11:14:51;;;;;;;;;;;25.30;27.10;;;;;;4344701;32;19986;-37
2021/10/12 11:17:17;;;;;;;;;;;25.40;27.10;;;;;;4343239;33;20083;-38
2021/10/12 11:19:55;;;;;;;;;;;25.50;27.30;;;;;;4349004;32;19977;-37
2021/10/12 11:22:22;;;;;;;;;;;25.70;27.30;;;;;;4358854;32;20395;-38
2021/10/12 11:24:48;;;;;;;;;;;25.90;27.30;;;;;;4358972;32;19991;-37
2021/10/12 11:27:14;;;;;;;;;;;26.10;27.00;;;;;;4345147;32;19974;-38
2021/10/12 11:29:40;;;;;;;;;;;26.40;26.80;;;;;;4359037;32;19967;-38
2021/10/12 11:32:07;;;;;;;;;;;26.50;26.60;;;;;;4359024;32;19994;-38
2021/10/12 11:34:33;;;;;;;;;;;26.60;26.70;;;;;;4359186;32;19964;-46
2021/10/12 11:37:09;;;;;;;;;;;26.50;26.80;;;;;;4359005;32;19978;-38
2021/10/12 11:39:35;;;;;;;;;;;26.50;26.80;;;;;;4359065;32;19970;-38
2021/10/12 11:42:02;;;;;;;;;;;26.40;26.80;;;;;;4358838;32;20423;-37
2021/10/12 11:44:28;;;;;;;;;;;26.40;26.80;;;;;;4359313;32;19967;-39
2021/10/12 11:47:02;;;;;;;;;;;26.30;26.70;;;;;;4370068;32;19990;-38
2021/10/12 11:49:37;;;;;;;;;;;26.30;26.70;;;;;;4374040;32;20029;-37
2021/10/12 11:52:05;;;;;;;;;;;26.40;26.40;;;;;;4360198;32;20034;-37
2021/10/12 11:54:31;;;;;;;;;;;26.60;26.40;;;;;;4373806;32;19970;-39
2021/10/12 11:56:57;;;;;;;;;;;26.70;25.70;;;;;;4373557;32;19962;-39
2021/10/12 11:59:25;;;;;;;;;;;26.90;25.20;;;;;;4359630;32;20382;-37
2021/10/12 12:01:53;;;;;;;;;;;27.10;24.90;;;;;;4373672;32;19996;-37
2021/10/12 12:04:32;;;;;;;;;;;27.40;24.50;;;;;;4373364;32;20054;-38
2021/10/12 12:06:59;;;;;;;;;;;27.50;24.40;;;;;;4373571;32;20054;-38
2021/10/12 12:09:25;;;;;;;;;;;27.70;24.20;;;;;;4373497;32;20030;-38
2021/10/12 12:11:54;;;;;;;;;;;27.90;24.00;;;;;;4373152;32;20051;-39
2021/10/12 12:14:24;;;;;;;;;;;28.10;23.60;;;;;;4359939;32;19998;-38
2021/10/12 12:17:27;;;;;;;;;;;28.20;23.40;;;;;;4359457;32;20355;-38
2021/10/12 12:19:56;;;;;;;;;;;28.40;23.30;;;;;;4326440;33;20027;-37
2021/10/12 12:22:27;;;;;;;;;;;28.40;22.90;;;;;;4326710;33;19981;-37
2021/10/12 12:24:53;;;;;;;;;;;28.50;22.80;;;;;;4326492;33;19971;-36
2021/10/12 12:27:20;;;;;;;;;;;28.70;22.30;;;;;;4326421;33;19989;-38
2021/10/12 12:29:57;;;;;;;;;;;28.80;22.30;;;;;;4326532;33;19967;-39
2021/10/12 12:32:23;;;;;;;;;;;28.80;22.20;;;;;;4326636;33;20365;-37
2021/10/12 12:35:00;;;;;;;;;;;28.70;21.80;;;;;;4326347;33;20019;-37
2021/10/12 12:37:26;;;;;;;;;;;28.70;21.90;;;;;;4326330;33;19982;-37
2021/10/12 12:39:53;;;;;;;;;;;28.60;22.10;;;;;;4326413;33;19975;-37
2021/10/12 12:42:33;;;;;;;;;;;28.40;22.00;;;;;;4313970;33;20547;-38
2021/10/12 12:45:16;;;;;;;;;;;28.40;22.10;;;;;;4326233;33;20062;-38
2021/10/12 12:48:02;;;;;;;;;;;28.40;22.20;;;;;;4311842;33;19963;-39
2021/10/12 12:50:35;;;;;;;;;;;28.30;22.10;;;;;;4311593;33;19975;-36
2021/10/12 12:53:03;;;;;;;;;;;28.30;22.10;;;;;;4301624;33;19970;-38
2021/10/12 12:55:40;;;;;;;;;;;28.30;22.20;;;;;;4326489;33;20415;-37
2021/10/12 12:58:08;;;;;;;;;;;28.30;22.20;;;;;;4325885;33;19966;-37
2021/10/12 13:00:35;;;;;;;;;;;28.20;22.30;;;;;;4314022;33;20013;-37
2021/10/12 13:03:03;;;;;;;;;;;28.20;22.40;;;;;;4314034;33;20054;-38
2021/10/12 13:05:29;;;;;;;;;;;28.00;22.20;;;;;;4314199;33;20057;-38
2021/10/12 13:07:55;;;;;;;;;;;28.00;22.20;;;;;;4326064;33;19983;-37
2021/10/12 13:10:22;;;;;;;;;;;27.80;22.20;;;;;;4325606;33;20156;-38
2021/10/12 13:12:48;;;;;;;;;;;27.70;22.30;;;;;;4326049;33;20376;-38
2021/10/12 13:15:15;;;;;;;;;;;27.50;22.30;;;;;;4326092;33;20031;-37
2021/10/12 13:17:41;;;;;;;;;;;27.40;22.40;;;;;;4326455;33;19966;-38
2021/10/12 13:20:10;;;;;;;;;;;27.20;22.30;;;;;;4325821;33;19982;-37
2021/10/12 13:22:37;;;;;;;;;;;27.00;22.40;;;;;;4326975;33;20109;-39
2021/10/12 13:25:08;;;;;;;;;;;26.80;22.40;;;;;;4358357;32;19965;-38
2021/10/12 13:27:34;;;;;;;;;;;26.70;22.50;;;;;;4360839;32;19976;-37
2021/10/12 13:30:01;;;;;;;;;;;26.60;22.60;;;;;;4360988;32;19966;-38
2021/10/12 13:32:27;;;;;;;;;;;26.50;22.70;;;;;;4360685;32;19977;-38
2021/10/12 13:34:53;;;;;;;;;;;26.40;22.80;;;;;;4360547;32;20053;-38
2021/10/12 13:37:20;;;;;;;;;;;26.20;22.80;;;;;;4360331;32;20448;-37
2021/10/12 13:39:47;;;;;;;;;;;26.10;22.90;;;;;;4360547;32;20132;-37
2021/10/12 13:42:13;;;;;;;;;;;25.90;22.90;;;;;;4360713;32;19971;-38
2021/10/12 13:44:40;;;;;;;;;;;25.70;22.90;;;;;;4360868;32;19968;-38
2021/10/12 13:47:07;;;;;;;;;;;25.50;23.10;;;;;;4373220;32;19962;-39
2021/10/12 13:49:34;;;;;;;;;;;25.30;23.20;;;;;;4375868;32;19974;-38
2021/10/12 13:52:00;;;;;;;;;;;25.10;23.20;;;;;;4374927;32;19964;-38
2021/10/12 13:54:27;;;;;;;;;;;24.90;23.30;;;;;;4361624;32;20466;-38
2021/10/12 13:56:53;;;;;;;;;;;24.80;23.40;;;;;;4375279;32;20018;-37
2021/10/12 13:59:20;;;;;;;;;;;24.70;23.50;;;;;;4375343;32;19962;-39
2021/10/12 14:01:47;;;;;;;;;;;24.50;23.50;;;;;;4361487;32;19986;-38
2021/10/12 14:04:13;;;;;;;;;;;24.30;23.60;;;;;;4375278;32;19966;-38
2021/10/12 14:06:40;;;;;;;;;;;24.20;23.70;;;;;;4348506;32;19966;-38
2021/10/12 14:09:07;;;;;;;;;;;24.00;23.80;;;;;;4374923;32;20425;-38
2021/10/12 14:11:37;;;;;;;;;;;23.80;23.90;;;;;;4375358;32;19977;-41
2021/10/12 14:14:05;;;;;;;;;;;23.60;24.00;;;;;;4375084;32;20009;-38
2021/10/12 14:16:32;;;;;;;;;;;23.40;24.10;;;;;;4360831;32;19960;-38
2021/10/12 14:18:58;;;;;;;;;;;23.30;24.20;;;;;;4374742;32;20137;-38
2021/10/12 14:21:24;;;;;;;;;;;23.10;24.30;;;;;;4375279;32;20048;-39